Time;durP1;ratioP1;P1;durP2;ratioP2;P2;SDS_P1;SDS_P2;PMS_P1;PMS_P2;Temp;Humidity;BMP_temperature;BMP_pressure;BME280_temperature;BME280_humidity;BME280_pressure;Samples;Min_cycle;Max_cycle;Signal;HPM_P1;HPM_P2
2021/11/07 00:00:42;;;;;;;6.13;2.87;;;10.40;99.90;;;;;;5053636;28;20659;-68
2021/11/07 00:05:54;;;;;;;3.77;2.63;;;10.30;99.90;;;;;;5130074;27;20504;-68
2021/11/07 00:08:35;;;;;;;4.17;2.90;;;10.30;99.90;;;;;;5130150;28;20379;-68
2021/11/07 00:11:05;;;;;;;3.73;3.43;;;10.20;99.90;;;;;;5130091;28;20471;-68
2021/11/07 00:13:31;;;;;;;2.90;2.70;;;10.10;99.90;;;;;;5130013;28;20414;-68
2021/11/07 00:16:03;;;;;;;3.63;3.20;;;10.10;99.90;;;;;;5119806;28;20408;-68
2021/11/07 00:18:37;;;;;;;5.03;3.37;;;10.10;99.90;;;;;;5109624;28;20385;-68
2021/11/07 00:21:11;;;;;;;3.50;3.20;;;10.10;99.90;;;;;;5109196;28;20453;-69
2021/11/07 00:23:46;;;;;;;3.87;3.50;;;10.10;99.90;;;;;;5109439;28;20443;-68
2021/11/07 00:28:54;;;;;;;3.77;3.43;;;10.10;99.90;;;;;;5188482;27;20635;-69
2021/11/07 00:31:46;;;;;;;3.90;3.50;;;10.10;99.90;;;;;;5153663;27;20413;-68
2021/11/07 00:36:57;;;;;;;4.33;3.47;;;10.10;99.90;;;;;;5068989;28;20638;-69
2021/11/07 00:44:52;;;;;;;5.70;4.20;;;9.90;99.90;;;;;;5069144;28;20638;-68
2021/11/07 00:47:33;;;;;;;4.27;3.87;;;9.90;99.90;;;;;;5069053;28;20382;-68
2021/11/07 00:50:04;;;;;;;4.90;3.97;;;9.90;99.90;;;;;;5058738;28;20937;-68
2021/11/07 00:52:37;;;;;;;5.30;4.30;;;9.80;99.90;;;;;;5049030;28;20385;-68
2021/11/07 00:55:12;;;;;;;5.10;4.60;;;9.80;99.90;;;;;;5049035;28;20390;-69
2021/11/07 00:57:44;;;;;;;5.00;4.00;;;9.80;99.90;;;;;;5048916;28;20600;-68
2021/11/07 01:00:17;;;;;;;5.60;4.30;;;9.80;99.90;;;;;;5055335;28;20803;-69
2021/11/07 01:02:43;;;;;;;5.20;4.60;;;9.80;99.90;;;;;;5068785;28;20473;-69
2021/11/07 01:05:21;;;;;;;7.83;4.80;;;9.80;99.90;;;;;;5068859;28;20382;-69
2021/11/07 01:07:46;;;;;;;6.20;4.97;;;9.70;99.90;;;;;;5051723;28;20995;-69
2021/11/07 01:10:13;;;;;;;6.50;5.23;;;9.70;99.90;;;;;;5048772;28;20395;-69
2021/11/07 01:12:38;;;;;;;10.00;5.10;;;9.70;99.90;;;;;;5048668;28;20160;-68
2021/11/07 01:15:06;;;;;;;6.40;5.80;;;9.60;99.90;;;;;;5048598;28;20486;-69
2021/11/07 01:17:32;;;;;;;9.83;6.13;;;9.60;99.90;;;;;;5048500;28;20718;-68
2021/11/07 01:19:58;;;;;;;5.70;5.20;;;9.60;99.90;;;;;;5048563;28;20415;-69
2021/11/07 01:22:35;;;;;;;5.83;5.17;;;9.60;99.90;;;;;;5048457;28;20679;-68
2021/11/07 01:25:02;;;;;;;6.47;5.57;;;9.50;99.90;;;;;;5048898;28;20415;-69
2021/11/07 01:27:33;;;;;;;8.00;6.20;;;9.50;99.90;;;;;;5048655;28;20474;-68
2021/11/07 01:30:02;;;;;;;6.30;5.70;;;9.50;99.90;;;;;;5057525;28;20419;-69
2021/11/07 01:32:33;;;;;;;6.57;5.97;;;9.50;99.90;;;;;;5048465;28;20418;-69
2021/11/07 01:35:08;;;;;;;6.10;5.60;;;9.50;99.90;;;;;;5048124;28;20778;-69
2021/11/07 01:37:41;;;;;;;7.97;5.80;;;9.50;99.90;;;;;;5048289;28;20463;-69
2021/11/07 01:40:12;;;;;;;6.83;5.50;;;9.50;99.90;;;;;;5051188;28;20502;-69
2021/11/07 01:42:41;;;;;;;9.70;6.10;;;9.50;99.90;;;;;;5067769;28;20387;-69
2021/11/07 01:45:21;;;;;;;6.50;5.40;;;9.50;99.90;;;;;;5067944;28;20460;-69
2021/11/07 01:47:51;;;;;;;7.37;6.10;;;9.50;99.90;;;;;;5067840;28;20402;-69
2021/11/07 01:50:17;;;;;;;6.53;5.93;;;9.50;99.90;;;;;;5067975;28;20494;-69
2021/11/07 01:52:44;;;;;;;7.97;5.90;;;9.50;99.90;;;;;;5067685;28;20402;-69
2021/11/07 01:55:16;;;;;;;8.67;5.93;;;9.50;99.90;;;;;;5059739;28;20478;-69
2021/11/07 01:57:42;;;;;;;6.63;6.00;;;9.50;99.90;;;;;;5046870;28;20419;-69
2021/11/07 02:02:52;;;;;;;11.23;6.63;;;9.50;99.90;;;;;;5054237;28;20574;-68
2021/11/07 02:05:18;;;;;;;7.57;6.50;;;9.50;99.90;;;;;;5049016;28;20863;-68
2021/11/07 02:07:44;;;;;;;7.03;6.00;;;9.50;99.90;;;;;;5049150;28;20619;-68
2021/11/07 02:10:13;;;;;;;7.57;6.87;;;9.50;99.90;;;;;;5048985;28;20381;-68
2021/11/07 02:12:40;;;;;;;7.87;6.90;;;9.50;99.90;;;;;;5049009;28;20390;-68
2021/11/07 02:15:08;;;;;;;8.80;6.57;;;9.50;99.90;;;;;;5048876;28;20934;-68
2021/11/07 02:17:34;;;;;;;11.80;6.97;;;9.50;99.90;;;;;;5048696;28;20811;-68
2021/11/07 02:20:02;;;;;;;7.10;6.40;;;9.50;99.90;;;;;;5048790;28;20394;-67
2021/11/07 02:22:28;;;;;;;8.20;6.53;;;9.50;99.90;;;;;;5048646;28;20237;-67
2021/11/07 02:24:54;;;;;;;8.23;7.30;;;9.50;99.90;;;;;;5048690;28;20433;-68
2021/11/07 02:27:19;;;;;;;7.83;7.13;;;9.50;99.90;;;;;;5048566;28;20617;-68
2021/11/07 02:29:45;;;;;;;11.40;7.63;;;9.50;99.90;;;;;;5047104;28;20261;-68
2021/11/07 02:32:11;;;;;;;10.57;7.43;;;9.50;99.90;;;;;;5048701;28;20521;-67
2021/11/07 02:34:36;;;;;;;8.97;7.10;;;9.50;99.90;;;;;;5048332;28;20166;-68
2021/11/07 02:37:02;;;;;;;8.73;7.43;;;9.50;99.90;;;;;;5048228;28;20206;-68
2021/11/07 02:39:29;;;;;;;8.30;7.60;;;9.50;99.90;;;;;;5048338;28;20161;-68
2021/11/07 02:41:54;;;;;;;9.77;6.83;;;9.50;99.90;;;;;;5048347;28;20445;-68
2021/11/07 02:44:31;;;;;;;7.60;6.90;;;9.50;99.90;;;;;;5048507;28;20394;-69
2021/11/07 02:46:58;;;;;;;8.93;6.70;;;9.50;99.90;;;;;;5048299;28;20230;-68
2021/11/07 02:49:24;;;;;;;9.67;7.47;;;9.50;99.90;;;;;;5048221;28;20429;-68
2021/11/07 02:51:51;;;;;;;8.10;7.33;;;9.60;99.90;;;;;;5048328;28;20557;-69
2021/11/07 02:54:16;;;;;;;8.67;7.87;;;9.60;99.90;;;;;;5048192;28;20811;-69
2021/11/07 02:56:42;;;;;;;8.90;8.00;;;9.60;99.90;;;;;;5047977;28;20468;-69
2021/11/07 02:59:17;;;;;;;10.47;8.97;;;9.50;99.90;;;;;;5047739;28;20486;-68
2021/11/07 03:01:42;;;;;;;9.03;8.13;;;9.50;99.90;;;;;;5047509;28;20202;-68
2021/11/07 03:04:09;;;;;;;9.10;8.30;;;9.50;99.90;;;;;;5048143;28;20810;-68
2021/11/07 03:06:36;;;;;;;8.97;8.17;;;9.50;99.90;;;;;;5047820;28;20226;-68
2021/11/07 03:09:04;;;;;;;9.13;8.33;;;9.50;99.90;;;;;;5047961;28;20441;-69
2021/11/07 03:11:30;;;;;;;9.40;8.50;;;9.50;99.90;;;;;;5048196;28;20811;-67
2021/11/07 03:14:03;;;;;;;9.37;8.43;;;9.50;99.90;;;;;;5036248;28;20766;-68
2021/11/07 03:16:29;;;;;;;7.97;7.30;;;9.50;99.90;;;;;;5034594;28;20914;-68
2021/11/07 03:18:55;;;;;;;11.70;8.83;;;9.50;99.90;;;;;;5034269;28;20434;-67
2021/11/07 03:21:23;;;;;;;8.83;7.93;;;9.50;99.90;;;;;;5034531;28;20202;-68
2021/11/07 03:23:50;;;;;;;9.00;8.30;;;9.50;99.90;;;;;;5034276;28;20494;-69
2021/11/07 03:26:20;;;;;;;8.73;8.03;;;9.50;99.90;;;;;;5034401;28;20886;-68
2021/11/07 03:28:48;;;;;;;9.77;8.87;;;9.50;99.90;;;;;;5027432;28;20430;-69
2021/11/07 03:31:19;;;;;;;8.07;7.40;;;9.50;99.90;;;;;;5014501;28;20388;-68
2021/11/07 03:33:50;;;;;;;8.77;8.03;;;9.50;99.90;;;;;;5014331;28;20430;-68
2021/11/07 03:36:18;;;;;;;9.70;8.80;;;9.50;99.90;;;;;;5014298;28;20421;-68
2021/11/07 03:38:46;;;;;;;10.07;9.17;;;9.50;99.90;;;;;;5028389;28;20418;-68
2021/11/07 03:41:12;;;;;;;10.17;9.33;;;9.50;99.90;;;;;;5013937;28;20545;-68
2021/11/07 03:43:39;;;;;;;9.57;8.77;;;9.50;99.90;;;;;;5014260;28;20393;-69
2021/11/07 03:46:06;;;;;;;10.20;9.40;;;9.50;99.90;;;;;;5014309;28;20482;-69
2021/11/07 03:48:31;;;;;;;11.37;10.27;;;9.50;99.90;;;;;;5014178;28;20396;-68
2021/11/07 03:50:58;;;;;;;10.67;9.70;;;9.50;99.90;;;;;;5014000;28;20523;-68
2021/11/07 03:53:23;;;;;;;11.00;10.03;;;9.50;99.90;;;;;;5014472;28;20158;-72
2021/11/07 03:55:49;;;;;;;13.60;12.20;;;9.60;99.90;;;;;;5015283;28;20400;-72
2021/11/07 03:58:15;;;;;;;11.90;10.90;;;9.60;99.90;;;;;;5031904;28;20171;-68
2021/11/07 04:00:41;;;;;;;11.10;10.10;;;9.60;99.90;;;;;;5028954;28;20602;-69
2021/11/07 04:03:07;;;;;;;11.90;10.90;;;9.60;99.90;;;;;;5033975;28;20167;-68
2021/11/07 04:05:34;;;;;;;11.13;10.23;;;9.60;99.90;;;;;;5033677;28;20399;-68
2021/11/07 04:08:00;;;;;;;11.37;10.47;;;9.60;99.90;;;;;;5033708;28;20387;-68
2021/11/07 04:10:25;;;;;;;9.80;9.00;;;9.70;99.90;;;;;;5033877;28;20536;-68
2021/11/07 04:12:52;;;;;;;10.37;9.47;;;9.70;99.90;;;;;;5033522;28;20258;-69
2021/11/07 04:15:17;;;;;;;10.93;9.87;;;9.70;99.90;;;;;;5033803;28;20160;-69
2021/11/07 04:17:43;;;;;;;12.83;9.30;;;9.70;99.90;;;;;;5033455;28;20401;-68
2021/11/07 04:20:09;;;;;;;9.23;8.50;;;9.70;99.90;;;;;;5033354;28;20620;-66
2021/11/07 04:22:36;;;;;;;9.60;8.80;;;9.70;99.90;;;;;;5033450;28;20197;-67
2021/11/07 04:25:03;;;;;;;8.93;8.13;;;9.70;99.90;;;;;;5032595;28;20407;-68
2021/11/07 04:27:28;;;;;;;11.30;8.77;;;9.70;99.90;;;;;;5033360;28;20451;-67
2021/11/07 04:29:54;;;;;;;8.53;7.87;;;9.80;99.90;;;;;;5025300;28;20450;-67
2021/11/07 04:32:20;;;;;;;8.60;7.90;;;9.70;99.90;;;;;;5033144;28;20636;-67
2021/11/07 04:34:45;;;;;;;8.67;7.97;;;9.80;99.90;;;;;;5033357;28;20271;-67
2021/11/07 04:37:11;;;;;;;8.50;7.77;;;9.80;99.90;;;;;;5033293;28;20484;-67
2021/11/07 04:39:37;;;;;;;8.07;7.37;;;9.90;99.90;;;;;;5033049;28;20168;-68
2021/11/07 04:42:03;;;;;;;8.77;7.97;;;9.80;99.90;;;;;;5033125;28;20442;-68
2021/11/07 04:44:30;;;;;;;8.63;7.83;;;9.90;99.90;;;;;;5033080;28;20206;-70
2021/11/07 04:46:56;;;;;;;8.53;7.80;;;9.90;99.90;;;;;;5033025;28;20395;-68
2021/11/07 04:49:22;;;;;;;8.43;7.73;;;9.90;99.90;;;;;;5033007;28;20390;-69
2021/11/07 04:51:47;;;;;;;9.77;8.60;;;9.90;99.90;;;;;;5032974;28;20399;-69
2021/11/07 04:54:13;;;;;;;7.70;7.10;;;9.90;99.90;;;;;;5032971;28;20163;-69
2021/11/07 04:56:39;;;;;;;8.47;7.67;;;9.90;99.90;;;;;;5032789;28;20175;-68
2021/11/07 04:59:06;;;;;;;10.70;8.70;;;9.90;99.90;;;;;;5032759;28;20283;-69
2021/11/07 05:01:31;;;;;;;9.10;8.23;;;9.90;99.90;;;;;;5031710;28;20825;-68
2021/11/07 05:03:57;;;;;;;9.27;8.30;;;9.90;99.90;;;;;;5032390;28;20402;-68
2021/11/07 05:06:23;;;;;;;10.03;8.20;;;10.00;99.90;;;;;;5032690;28;20175;-69
2021/11/07 05:08:48;;;;;;;9.23;8.43;;;10.00;99.90;;;;;;5032649;28;20155;-69
2021/11/07 05:11:15;;;;;;;9.70;8.90;;;10.00;99.90;;;;;;5032593;28;20405;-68
2021/11/07 05:13:40;;;;;;;9.27;8.20;;;10.00;99.90;;;;;;5032595;28;20539;-67
2021/11/07 05:16:06;;;;;;;9.07;8.27;;;10.00;99.90;;;;;;5032411;28;20410;-69
2021/11/07 05:18:34;;;;;;;9.30;8.40;;;10.00;99.90;;;;;;5032474;28;20168;-68
2021/11/07 05:21:02;;;;;;;10.80;9.70;;;10.10;99.90;;;;;;5032339;28;20213;-68
2021/11/07 05:23:28;;;;;;;10.00;9.10;;;10.10;99.90;;;;;;5032421;28;20897;-68
2021/11/07 05:25:55;;;;;;;9.70;9.00;;;10.10;99.90;;;;;;5032299;28;20390;-68
2021/11/07 05:28:21;;;;;;;11.17;10.20;;;10.10;99.90;;;;;;5025529;28;20212;-68
2021/11/07 05:30:47;;;;;;;11.73;10.83;;;10.10;99.90;;;;;;5032249;28;20757;-68
2021/11/07 05:33:14;;;;;;;11.53;10.63;;;10.10;99.90;;;;;;5032228;28;20254;-67
2021/11/07 05:35:39;;;;;;;11.50;10.57;;;10.10;99.90;;;;;;5031991;28;20394;-67
2021/11/07 05:38:05;;;;;;;12.70;11.60;;;10.10;99.90;;;;;;5032150;28;20784;-68
2021/11/07 05:40:31;;;;;;;11.60;10.60;;;10.20;99.90;;;;;;5032147;28;20156;-67
2021/11/07 05:42:56;;;;;;;12.13;10.97;;;10.20;99.90;;;;;;5032016;28;20164;-68
2021/11/07 05:45:23;;;;;;;11.80;10.60;;;10.10;99.90;;;;;;5032169;28;20181;-68
2021/11/07 05:47:50;;;;;;;11.30;10.40;;;10.20;99.90;;;;;;5031897;28;20176;-68
2021/11/07 05:50:17;;;;;;;12.27;11.30;;;10.20;99.90;;;;;;5032078;28;20918;-69
2021/11/07 05:52:43;;;;;;;13.40;12.10;;;10.20;99.90;;;;;;5032131;28;20892;-69
2021/11/07 05:55:09;;;;;;;11.87;10.87;;;10.20;99.90;;;;;;5031601;28;20794;-69
2021/11/07 05:57:35;;;;;;;13.67;12.47;;;10.20;99.90;;;;;;5031071;28;20395;-68
2021/11/07 06:00:01;;;;;;;12.70;11.63;;;10.20;99.90;;;;;;5026066;28;20438;-69
2021/11/07 06:02:26;;;;;;;12.23;10.97;;;10.20;99.90;;;;;;5031804;28;20210;-68
2021/11/07 06:04:52;;;;;;;12.37;11.37;;;10.20;99.90;;;;;;5031763;28;20418;-68
2021/11/07 06:07:18;;;;;;;12.83;11.73;;;10.30;99.90;;;;;;5032203;28;20159;-69
2021/11/07 06:09:44;;;;;;;13.07;11.97;;;10.30;99.90;;;;;;5031954;28;20159;-69
2021/11/07 06:12:10;;;;;;;12.10;11.20;;;10.30;99.90;;;;;;5031744;28;21002;-70
2021/11/07 06:14:36;;;;;;;12.77;11.67;;;10.30;99.90;;;;;;5031889;28;20181;-69
2021/11/07 06:17:02;;;;;;;12.77;11.67;;;10.30;99.90;;;;;;5031912;28;20719;-69
2021/11/07 06:19:28;;;;;;;12.17;11.23;;;10.30;99.90;;;;;;5031696;28;20158;-69
2021/11/07 06:21:54;;;;;;;12.27;11.27;;;10.30;99.90;;;;;;5031950;28;20476;-69
2021/11/07 06:24:25;;;;;;;12.93;11.93;;;10.30;99.90;;;;;;5031819;28;20588;-68
2021/11/07 06:26:54;;;;;;;13.47;12.17;;;10.40;99.90;;;;;;5031637;28;20161;-69
2021/11/07 06:29:20;;;;;;;13.97;12.50;;;10.40;99.90;;;;;;5023566;28;20446;-69
2021/11/07 06:31:46;;;;;;;12.43;11.43;;;10.40;99.90;;;;;;5030659;28;20467;-69
2021/11/07 06:34:12;;;;;;;13.47;12.47;;;10.40;99.90;;;;;;5031723;28;20399;-69
2021/11/07 06:36:37;;;;;;;13.53;12.43;;;10.40;99.90;;;;;;5031533;28;20410;-68
2021/11/07 06:39:03;;;;;;;13.60;12.50;;;10.40;99.90;;;;;;5031733;28;20165;-67
2021/11/07 06:41:29;;;;;;;14.03;12.83;;;10.40;99.90;;;;;;5031568;28;20189;-68
2021/11/07 06:43:55;;;;;;;17.90;13.67;;;10.30;99.90;;;;;;5031917;28;20385;-67
2021/11/07 06:46:22;;;;;;;13.50;12.50;;;10.30;99.90;;;;;;5031744;28;20176;-68
2021/11/07 06:48:49;;;;;;;15.40;14.00;;;10.30;99.90;;;;;;5033945;28;20148;-69
2021/11/07 06:51:16;;;;;;;14.83;13.43;;;10.30;99.90;;;;;;5035513;28;20392;-69
2021/11/07 06:53:42;;;;;;;14.20;13.00;;;10.30;99.90;;;;;;5035260;28;20398;-69
2021/11/07 06:56:08;;;;;;;14.87;13.47;;;10.30;99.90;;;;;;5035287;28;20422;-68
2021/11/07 06:58:34;;;;;;;14.17;12.70;;;10.30;99.90;;;;;;5035172;28;20923;-68
2021/11/07 07:01:00;;;;;;;12.90;11.80;;;10.30;99.90;;;;;;5034306;28;20473;-67
2021/11/07 07:03:25;;;;;;;13.40;11.40;;;10.30;99.90;;;;;;5034852;28;20215;-67
2021/11/07 07:05:51;;;;;;;13.53;12.30;;;10.40;99.90;;;;;;5035040;28;20395;-69
2021/11/07 07:08:21;;;;;;;12.83;11.73;;;10.40;99.90;;;;;;5035181;28;20214;-70
2021/11/07 07:10:55;;;;;;;12.97;11.67;;;10.40;99.90;;;;;;5034872;28;20168;-69
2021/11/07 07:13:28;;;;;;;13.73;11.90;;;10.40;99.90;;;;;;5035107;28;20428;-69
2021/11/07 07:21:39;;;;;;;13.80;12.60;;;10.40;99.90;;;;;;5055777;28;20989;-69
2021/11/07 07:24:34;;;;;;;14.27;12.87;;;10.40;99.90;;;;;;5049608;28;20450;-70
2021/11/07 07:27:01;;;;;;;12.97;11.87;;;10.40;99.90;;;;;;5062416;28;20717;-68
2021/11/07 07:29:35;;;;;;;12.20;11.17;;;10.40;99.90;;;;;;5042531;28;20433;-68
2021/11/07 07:34:51;;;;;;;11.80;10.63;;;10.50;99.90;;;;;;5048384;28;20976;-69
2021/11/07 07:37:16;;;;;;;14.20;11.63;;;10.50;99.90;;;;;;5048504;28;20414;-69
2021/11/07 07:39:42;;;;;;;13.50;12.27;;;10.50;99.90;;;;;;5049007;28;20450;-67
2021/11/07 07:42:08;;;;;;;13.27;11.67;;;10.50;99.90;;;;;;5048944;28;20163;-67
2021/11/07 07:44:35;;;;;;;12.63;11.10;;;10.50;99.90;;;;;;5049040;28;20676;-67
2021/11/07 07:47:00;;;;;;;11.90;10.70;;;10.50;99.90;;;;;;5048966;28;20398;-68
2021/11/07 07:49:27;;;;;;;12.67;11.37;;;10.60;99.90;;;;;;5048862;28;20402;-69
2021/11/07 07:51:54;;;;;;;12.80;11.60;;;10.60;99.90;;;;;;5048814;28;20552;-68
2021/11/07 07:54:21;;;;;;;13.67;11.90;;;10.60;99.90;;;;;;5048472;28;20425;-67
2021/11/07 07:56:46;;;;;;;13.80;11.20;;;10.60;99.90;;;;;;5048810;28;20430;-68
2021/11/07 07:59:12;;;;;;;13.20;11.87;;;10.60;99.90;;;;;;5039180;28;20569;-67
2021/11/07 08:01:37;;;;;;;13.27;11.80;;;10.60;99.90;;;;;;5028627;28;20206;-69
2021/11/07 08:04:03;;;;;;;13.53;12.00;;;10.70;99.90;;;;;;5028744;28;20165;-68
2021/11/07 08:06:29;;;;;;;14.13;11.17;;;10.70;99.90;;;;;;5028623;28;20170;-69
2021/11/07 08:08:55;;;;;;;19.40;10.50;;;10.70;99.90;;;;;;5028686;28;20163;-68
2021/11/07 08:11:22;;;;;;;10.47;9.40;;;10.70;99.90;;;;;;5028456;28;20188;-68
2021/11/07 08:13:50;;;;;;;13.73;11.50;;;10.70;99.90;;;;;;5028471;28;20615;-68
2021/11/07 08:16:16;;;;;;;10.47;9.40;;;10.70;99.90;;;;;;5028550;28;20389;-67
2021/11/07 08:18:42;;;;;;;12.47;10.20;;;10.80;99.90;;;;;;5028452;28;20397;-68
2021/11/07 08:21:08;;;;;;;16.90;10.10;;;10.80;99.90;;;;;;5028284;28;20468;-69
2021/11/07 08:23:34;;;;;;;11.50;10.30;;;10.80;99.90;;;;;;5028467;28;20394;-68
2021/11/07 08:26:01;;;;;;;9.90;9.00;;;10.80;99.90;;;;;;5028205;28;20624;-69
2021/11/07 08:28:28;;;;;;;11.37;8.80;;;10.90;99.90;;;;;;5027581;28;20434;-68
2021/11/07 08:31:02;;;;;;;10.97;8.40;;;10.90;99.90;;;;;;5024229;28;20833;-68
2021/11/07 08:33:28;;;;;;;10.03;8.90;;;10.90;99.90;;;;;;5015047;28;20390;-69
2021/11/07 08:35:59;;;;;;;9.83;8.90;;;11.00;99.90;;;;;;5014990;28;20423;-69
2021/11/07 08:38:30;;;;;;;9.33;8.40;;;11.00;99.90;;;;;;5015199;28;20181;-68
2021/11/07 08:40:57;;;;;;;12.80;9.17;;;11.00;99.90;;;;;;5014894;28;20481;-68
2021/11/07 09:05:13;;;;;;;12.77;7.90;;;11.30;99.90;;;;;;5069254;28;20524;-70
2021/11/07 09:07:59;;;;;;;16.10;7.67;;;11.30;99.90;;;;;;5069255;28;21062;-69
2021/11/07 09:10:28;;;;;;;11.40;6.60;;;11.30;99.90;;;;;;5069079;28;20405;-69
2021/11/07 09:12:54;;;;;;;14.80;8.70;;;11.30;99.90;;;;;;5069180;28;20398;-69
2021/11/07 09:15:21;;;;;;;12.40;7.33;;;11.40;99.90;;;;;;5069029;28;20947;-68
2021/11/07 09:17:48;;;;;;;10.60;6.77;;;11.40;99.90;;;;;;5069070;28;20573;-68
2021/11/07 09:20:21;;;;;;;11.93;6.57;;;11.40;99.90;;;;;;5056592;28;20418;-69
2021/11/07 09:22:51;;;;;;;12.87;6.17;;;11.50;99.90;;;;;;5048991;28;20383;-67
2021/11/07 09:25:24;;;;;;;16.70;7.30;;;11.50;99.90;;;;;;5048976;28;20395;-69
2021/11/07 09:27:56;;;;;;;12.53;6.70;;;11.50;99.90;;;;;;5053105;28;20765;-68
2021/11/07 09:30:28;;;;;;;9.83;5.90;;;11.50;99.90;;;;;;5053885;28;20406;-68
2021/11/07 09:38:49;;;;;;;11.93;6.03;;;11.70;99.90;;;;;;5069105;28;20574;-68
2021/11/07 09:41:26;;;;;;;12.47;5.43;;;11.70;99.90;;;;;;5068974;28;20475;-69
2021/11/07 09:49:23;;;;;;;8.70;6.20;;;11.80;99.90;;;;;;5069312;28;20505;-68
2021/11/07 09:51:57;;;;;;;10.93;5.70;;;11.80;99.90;;;;;;5069222;28;20395;-67
2021/11/07 09:54:24;;;;;;;15.23;6.10;;;11.80;99.90;;;;;;5055157;28;20935;-69
2021/11/07 09:56:52;;;;;;;13.50;5.60;;;11.70;99.90;;;;;;5049332;28;20482;-68
2021/11/07 09:59:19;;;;;;;12.17;5.60;;;11.70;99.90;;;;;;5048903;28;20915;-69
2021/11/07 10:01:50;;;;;;;12.83;5.50;;;11.70;99.90;;;;;;5049189;28;20383;-68
2021/11/07 10:04:17;;;;;;;11.37;4.77;;;11.70;99.90;;;;;;5049030;28;20430;-69
2021/11/07 10:06:47;;;;;;;12.67;4.83;;;11.80;99.90;;;;;;5048979;28;20380;-68
2021/11/07 10:09:27;;;;;;;14.90;5.10;;;11.80;99.90;;;;;;5048882;28;20399;-69
2021/11/07 10:12:18;;;;;;;13.93;5.60;;;12.00;99.90;;;;;;5049384;28;20501;-68
2021/11/07 10:17:31;;;;;;;11.97;4.70;;;12.00;99.90;;;;;;5069211;28;20578;-69
2021/11/07 10:22:40;;;;;;;9.67;4.47;;;12.10;99.90;;;;;;5069279;28;20550;-68
2021/11/07 10:25:15;;;;;;;11.20;4.27;;;12.20;99.90;;;;;;5069289;28;20391;-68
2021/11/07 10:27:42;;;;;;;13.70;5.67;;;12.20;99.90;;;;;;5060956;28;20406;-70
2021/11/07 10:30:15;;;;;;;13.13;4.10;;;12.20;99.90;;;;;;5057153;28;20406;-68
2021/11/07 10:32:52;;;;;;;9.90;5.27;;;12.20;99.90;;;;;;5069110;28;20821;-69
2021/11/07 10:38:25;;;;;;;12.93;4.87;;;12.20;99.90;;;;;;5068517;28;20516;-68
2021/11/07 10:43:50;;;;;;;8.83;4.03;;;12.30;99.90;;;;;;5089524;28;20503;-69
2021/11/07 10:46:53;;;;;;;10.23;4.53;;;12.20;99.90;;;;;;5069440;28;20394;-70
2021/11/07 10:52:22;;;;;;;15.93;5.27;;;12.30;99.90;;;;;;5088193;28;20425;-69
2021/11/07 10:54:47;;;;;;;12.73;4.50;;;12.40;99.90;;;;;;5089546;28;20404;-68
2021/11/07 11:00:17;;;;;;;10.97;4.50;;;12.40;99.90;;;;;;5068602;28;20539;-68
2021/11/07 11:02:46;;;;;;;13.07;4.20;;;12.30;99.90;;;;;;5034805;28;20482;-68
2021/11/07 11:05:16;;;;;;;12.77;3.97;;;12.30;99.90;;;;;;5029118;28;20416;-68
2021/11/07 11:10:38;;;;;;;14.77;4.50;;;12.40;99.90;;;;;;5130327;27;20519;-69
2021/11/07 11:13:10;;;;;;;24.70;5.13;;;12.50;99.90;;;;;;5130458;28;20390;-68
2021/11/07 11:15:42;;;;;;;9.40;4.97;;;12.50;99.90;;;;;;5129696;28;20489;-68
2021/11/07 11:26:47;;;;;;;14.00;3.80;;;12.80;99.90;;;;;;5115009;28;20406;-68
2021/11/07 11:32:02;;;;;;;13.03;3.90;;;12.90;99.90;;;;;;5069261;28;20964;-68
2021/11/07 11:34:32;;;;;;;9.70;3.97;;;12.90;99.90;;;;;;5068111;28;20438;-69
2021/11/07 11:37:09;;;;;;;8.70;4.20;;;12.90;99.90;;;;;;5064171;28;20411;-68
2021/11/07 11:39:40;;;;;;;11.40;3.53;;;12.90;99.90;;;;;;5068912;28;20416;-68
2021/11/07 11:42:13;;;;;;;12.37;4.07;;;12.80;99.90;;;;;;5068793;28;20421;-68
2021/11/07 11:44:42;;;;;;;12.23;5.47;;;12.70;99.90;;;;;;5069052;28;20376;-69
2021/11/07 11:47:46;;;;;;;10.03;3.97;;;12.60;99.90;;;;;;5068966;28;20505;-70
2021/11/07 11:50:23;;;;;;;10.60;3.80;;;12.50;99.90;;;;;;5067742;28;20468;-68
2021/11/07 11:55:32;;;;;;;11.03;3.63;;;12.40;99.90;;;;;;5068824;28;20532;-69
2021/11/07 12:15:06;;;;;;;8.60;3.40;;;12.40;99.90;;;;;;5068391;28;20426;-68
2021/11/07 12:17:36;;;;;;;14.33;4.43;;;12.50;99.90;;;;;;5069084;28;20410;-67
2021/11/07 12:25:50;;;;;;;17.07;4.97;;;12.50;99.90;;;;;;5068538;28;20508;-70
2021/11/07 12:28:17;;;;;;;11.33;4.60;;;12.60;99.90;;;;;;5049335;28;20421;-69
2021/11/07 12:30:43;;;;;;;10.60;5.13;;;12.60;99.90;;;;;;5048236;28;20414;-70
2021/11/07 12:41:25;;;;;;;11.20;3.60;;;12.50;99.90;;;;;;5108810;28;20924;-68
2021/11/07 12:52:12;;;;;;;12.40;3.40;;;12.20;99.90;;;;;;5130369;27;20504;-69
2021/11/07 12:54:40;;;;;;;12.00;3.93;;;12.00;99.90;;;;;;5130174;28;20386;-69
2021/11/07 12:57:11;;;;;;;16.07;4.60;;;12.00;99.90;;;;;;5130168;28;20773;-69
2021/11/07 13:07:59;;;;;;;6.50;3.17;;;12.00;99.90;;;;;;5045540;28;20547;-68
2021/11/07 13:10:39;;;;;;;12.67;3.47;;;12.00;99.90;;;;;;5045606;28;20383;-69
2021/11/07 13:13:12;;;;;;;11.20;3.87;;;11.90;99.90;;;;;;5046305;28;20375;-68
2021/11/07 13:21:26;;;;;;;8.83;3.93;;;12.10;99.90;;;;;;5068584;28;20524;-68
2021/11/07 13:29:48;;;;;;;12.13;3.63;;;12.20;99.90;;;;;;5065105;28;20530;-68
2021/11/07 13:37:56;;;;;;;10.60;3.50;;;12.20;99.90;;;;;;5130016;27;20892;-69
2021/11/07 13:43:19;;;;;;;9.80;4.50;;;12.30;99.90;;;;;;5069007;28;21068;-68
2021/11/07 13:45:50;;;;;;;15.87;4.23;;;12.30;99.90;;;;;;5069311;28;20386;-67
2021/11/07 13:48:21;;;;;;;13.67;4.87;;;12.30;99.90;;;;;;5048965;28;20422;-67
2021/11/07 13:50:48;;;;;;;10.40;3.67;;;12.20;99.90;;;;;;5049522;28;20817;-68
2021/11/07 13:55:59;;;;;;;16.00;4.50;;;12.20;99.90;;;;;;5069281;28;20539;-68
2021/11/07 13:58:27;;;;;;;10.73;4.30;;;12.20;99.90;;;;;;5069004;28;20907;-69
2021/11/07 14:00:58;;;;;;;13.33;3.97;;;12.20;99.90;;;;;;5067909;28;20409;-68
2021/11/07 14:03:24;;;;;;;9.20;4.60;;;12.10;99.90;;;;;;5068962;28;20389;-68
2021/11/07 14:05:53;;;;;;;11.47;4.50;;;12.10;99.90;;;;;;5068960;28;20473;-68
2021/11/07 14:08:19;;;;;;;15.50;4.30;;;12.10;99.90;;;;;;5063904;28;20399;-68
2021/11/07 14:10:45;;;;;;;9.30;4.40;;;12.10;99.90;;;;;;5049097;28;20470;-68
2021/11/07 14:13:13;;;;;;;13.23;4.10;;;12.10;99.90;;;;;;5049041;28;20192;-68
2021/11/07 14:15:44;;;;;;;8.97;3.47;;;12.10;99.90;;;;;;5048840;28;20198;-69
2021/11/07 14:18:29;;;;;;;11.37;4.00;;;12.10;99.90;;;;;;5048740;28;20415;-68
2021/11/07 14:23:39;;;;;;;10.03;3.10;;;12.10;99.90;;;;;;5069208;28;20869;-69
2021/11/07 14:26:10;;;;;;;8.93;4.60;;;12.20;99.90;;;;;;5057739;28;20509;-69
2021/11/07 14:31:33;;;;;;;10.33;3.40;;;12.20;99.90;;;;;;5068505;28;20546;-66
2021/11/07 14:34:05;;;;;;;11.20;4.13;;;12.20;99.90;;;;;;5069288;28;20473;-69
2021/11/07 14:36:42;;;;;;;10.80;3.93;;;12.10;99.90;;;;;;5069239;28;20386;-67
2021/11/07 14:39:25;;;;;;;19.07;5.10;;;12.10;99.90;;;;;;5069207;28;20423;-67
2021/11/07 14:42:33;;;;;;;16.47;4.10;;;12.10;99.90;;;;;;5066113;28;20413;-67
2021/11/07 14:51:08;;;;;;;10.07;3.47;;;12.10;99.90;;;;;;5069041;28;20508;-69
2021/11/07 14:54:08;;;;;;;12.27;3.40;;;12.10;99.90;;;;;;5069086;28;20390;-69
2021/11/07 14:59:34;;;;;;;11.50;3.60;;;12.10;99.90;;;;;;5061736;28;20443;-69
2021/11/07 15:05:03;;;;;;;9.23;4.23;;;12.00;99.90;;;;;;5069272;28;20649;-68
2021/11/07 15:07:36;;;;;;;11.37;3.50;;;11.90;99.90;;;;;;5069240;28;20386;-68
2021/11/07 15:10:18;;;;;;;11.83;3.27;;;11.90;99.90;;;;;;5069400;28;20527;-68
2021/11/07 15:21:02;;;;;;;11.23;3.83;;;11.80;99.90;;;;;;5069146;28;20625;-69
2021/11/07 15:23:39;;;;;;;8.43;3.20;;;11.70;99.90;;;;;;5069087;28;20385;-68
2021/11/07 15:26:26;;;;;;;8.43;3.17;;;11.70;99.90;;;;;;5068663;28;20398;-68
2021/11/07 15:28:57;;;;;;;9.57;3.80;;;11.70;99.90;;;;;;5068254;28;20411;-69
2021/11/07 15:31:22;;;;;;;15.80;3.97;;;11.70;99.90;;;;;;5068800;28;20405;-68
2021/11/07 15:33:48;;;;;;;10.50;5.30;;;11.60;99.90;;;;;;5059642;28;20489;-69
2021/11/07 15:36:24;;;;;;;10.07;4.20;;;11.60;99.90;;;;;;5049033;28;20521;-68
2021/11/07 15:39:04;;;;;;;9.70;4.60;;;11.50;99.90;;;;;;5064091;28;20187;-68
2021/11/07 15:41:29;;;;;;;15.60;3.97;;;11.50;99.90;;;;;;5068839;28;20443;-69
2021/11/07 15:43:55;;;;;;;16.77;3.93;;;11.40;99.90;;;;;;5068856;28;20386;-68
2021/11/07 15:46:21;;;;;;;8.10;3.30;;;11.40;99.90;;;;;;5068825;28;20152;-69
2021/11/07 15:48:49;;;;;;;12.43;4.00;;;11.40;99.90;;;;;;5068798;28;20518;-68
2021/11/07 15:56:36;;;;;;;12.13;3.83;;;11.30;99.90;;;;;;5130356;27;20505;-69
2021/11/07 16:04:43;;;;;;;14.40;3.83;;;11.20;99.90;;;;;;5069201;28;21157;-68
2021/11/07 16:07:22;;;;;;;15.50;4.93;;;11.20;99.90;;;;;;5065627;28;20410;-69
2021/11/07 16:10:01;;;;;;;10.40;3.80;;;11.10;99.90;;;;;;5049255;28;20757;-68